North Little Rock, AR (72118)

5:07 AM CST on March 01, 2015 (GMT -0600)
Indian Hills | Change Station
CLOSE
Current Station
Personal Weather Station
Location: North Little Rock, AR
Elevation: 488 ft
Nearby Weather Stations
Active Advisory: Winter Weather Advisory Active Notice: Record Report

Elev 488 ft 34.82 °N, 92.25 °W | Updated 12 minutes ago

Rain
Rain
32.5 °F
Feels Like 32 °F
N
1.0
Wind Variable Wind from NNW
Gusts 7.0 mph

Today
High -- | Low -- °F
--% Chance of Precip.
Yesterday
High -- | Low -- °F
Precip. -- in
6:38 AM 6:04 PM
Waxing Gibbous, 84% visible
Pressure 30.40 in
Visibility 4.0 miles
Clouds Few 3000 ft
Overcast 4500 ft
Windchill 32 °F
Dew Point 30 °F
Humidity 90%
Rainfall 0.00 in
Snow Depth Not available.
UV 0 out of 12
Pollen 4.60 out of 12
Air Quality Not available.
Flu Activity Not available.
METAR KLIT 011053Z 34006KT 4SM -DZ BR FEW030 OVC045 01/M02 A3038 RMK AO2 DZE23B52RAB23E52 SLP292 P0002 T00061022

More Conditions Fewer Conditions

Pressure 30.40 in
Visibility 4.0 miles
Clouds Few 3000 ft
Overcast 4500 ft
Windchill 32 °F
Dew Point 30 °F
Humidity 90%
Rainfall 0.00 in
Snow Depth Not available.
UV 0 out of 12
Pollen 4.60 out of 12
Air Quality Not available.
Flu Activity Not available.
METAR KLIT 011053Z 34006KT 4SM -DZ BR FEW030 OVC045 01/M02 A3038 RMK AO2 DZE23B52RAB23E52 SLP292 P0002 T00061022

More Conditions Fewer Conditions

10-Day Weather Forecast

Almanac

Astronomy

Mar. 01, 2015 Rise Set
Actual Time
Civil Twilight
Nautical Twilight
Astronomical Twilight
Moon
Length of Visible Light
Length of Day
Tomorrow will be .
, % of the Moon is Illuminated

Today's Extremes

State Highs State Lows

Community

WunderPhotos

Upload Photos

1,801,359 photos uploaded!

WunderBlogs® & News

Nearby

Air Quality

  Air Quality AQ Index Pollutant
Not available.

Snow Depth

Station Depth Elevation

Earthquake Activity

City Distance Mag. Time & Date
Minimum magnitude displayed is 2.5.

Coastal Water Temperatures

Place Temperature

Nearby Weather Stations

Winter Weather Advisory
Statement as of 3:15 AM CST on March 01, 2015

... Winter Weather Advisory remains in effect until 6 am CST early
this morning...

A Winter Weather Advisory remains in effect until 6 am CST early
this morning.

* Event: light freezing rain will continue through the early
morning hours.

* Timing: freezing rain will continue before temperatures warm
enough to change precipitation to rain Sunday morning.

* Areas affected: parts of western... central... and northern
Arkansas.

* Ice amounts: ice accumulations of a few hundredths of an inch
will be possible.

* Impacts: wintry precipitation will continue to cause travel
issues on area roadways.

Precautionary/preparedness actions...

A Winter Weather Advisory means that periods of snow... sleet... or
freezing rain will cause travel difficulties. Be prepared for
slippery roads and limited visibilities... and use caution while
driving.